This is the latest recevied weather packets stored in our database for station/object VA2IEI-13. If no packets are shown the sender has not sent any weather packets the latest 10 day(s).
| Time | Temp. | Humidity | Pressure | Rain* | Wind** | Luminosity | Snow |
|---|---|---|---|---|---|---|---|
| 1777329624 | 23.89° C | 28% | 1025.1 hPa | 0 mm | - | - | - |
| 1777328480 | 24.44° C | 28% | 1025.1 hPa | 0 mm | - | - | - |
| 1777326662 | 23.89° C | 27% | 1025.3 hPa | 0 mm | - | - | - |
| 1777325454 | 23.89° C | 28% | 1025.2 hPa | 0 mm | - | - | - |
| 1777323644 | 24.44° C | 29% | 1025.4 hPa | 0 mm | - | - | - |
| 1777321220 | 23.33° C | 30% | 1025.5 hPa | 0 mm | - | - | - |
| 1777319476 | 23.33° C | 30% | 1025.6 hPa | 0 mm | - | - | - |
| 1777318268 | 22.78° C | 33% | 1025.8 hPa | 0 mm | - | - | - |
| 1777312850 | 22.22° C | 35% | 1026.6 hPa | 0 mm | - | - | - |
| 1777312214 | 21.67° C | 34% | 1026.7 hPa | 0 mm | - | - | - |
| 1777305631 | 19.44° C | 44% | 1027.5 hPa | 0 mm | - | - | - |
| 1777304444 | 18.33° C | 44% | 1027.6 hPa | 0 mm | - | - | - |
| 1777300286 | 15° C | 56% | 1028.4 hPa | 0 mm | - | - | - |
| 1777296637 | 13.33° C | 65% | 1028.6 hPa | 0 mm | - | - | - |
| 1777291867 | 9.44° C | 74% | 1028.6 hPa | 0 mm | - | - | - |
| 1777291263 | 8.89° C | 76% | 1028.4 hPa | 0 mm | - | - | - |
| 1777289428 | 7.78° C | 80% | 1028.4 hPa | 0 mm | - | - | - |
| 1777286491 | 6.67° C | 83% | 1028.3 hPa | 0 mm | - | - | - |
| 1777282237 | 5° C | 83% | 1027.4 hPa | 0 mm | - | - | - |
| 1777280421 | 5° C | 83% | 1027.1 hPa | 0 mm | - | - | - |
| 1777278674 | 5.56° C | 81% | 1026.8 hPa | 0 mm | - | - | - |
| 1777276256 | 6.11° C | 78% | 1026.6 hPa | 0 mm | - | - | - |
| 1777274444 | 7.22° C | 74% | 1026.4 hPa | 0 mm | - | - | - |
| 1777267827 | 8.33° C | 71% | 1026.2 hPa | 0 mm | - | - | - |
| 1777267220 | 8.33° C | 70% | 1026.2 hPa | 0 mm | - | - | - |
* Rain latest hour (hover to see other rain measurements)
** Current wind speed in m/s (hover to see current wind gust speed)